createdAt,value
2023-04-01T00:01:37.627Z,77.13
2023-04-01T00:04:23.892Z,77.10
2023-04-01T00:07:11.023Z,76.92
2023-04-01T00:09:57.419Z,76.95
2023-04-01T00:12:44.577Z,76.97
2023-04-01T00:15:31.299Z,77.32
2023-04-01T00:18:17.993Z,77.05
2023-04-01T00:21:05.090Z,77.36
2023-04-01T00:23:52.346Z,77.51
2023-04-01T00:26:38.823Z,77.78
2023-04-01T00:29:29.259Z,77.58
2023-04-01T00:32:16.245Z,77.62
2023-04-01T00:35:02.530Z,77.37
2023-04-01T00:37:49.606Z,77.56
2023-04-01T00:40:40.380Z,77.70
2023-04-01T00:43:27.108Z,77.70
2023-04-01T00:46:14.297Z,77.47
2023-04-01T00:49:01.967Z,77.71
2023-04-01T00:51:51.306Z,77.56
2023-04-01T00:54:39.798Z,77.55
2023-04-01T00:57:35.981Z,77.56
2023-04-01T01:00:22.492Z,77.57
2023-04-01T01:03:09.176Z,77.34
2023-04-01T01:06:22.911Z,77.62
2023-04-01T01:09:52.175Z,77.63
2023-04-01T01:13:06.652Z,77.51
2023-04-01T01:16:05.151Z,77.57
2023-04-01T01:19:10.702Z,77.91
2023-04-01T01:22:16.210Z,77.94
2023-04-01T01:25:22.266Z,77.79
2023-04-01T01:28:31.065Z,78.37
2023-04-01T01:31:49.644Z,78.22
2023-04-01T01:34:49.452Z,78.21
2023-04-01T01:37:38.306Z,78.42
2023-04-01T01:40:28.294Z,78.28
2023-04-01T01:43:20.715Z,78.20
2023-04-01T01:46:13.055Z,78.46
2023-04-01T01:49:02.649Z,78.44
2023-04-01T01:51:49.681Z,78.53
2023-04-01T01:54:36.461Z,78.39
2023-04-01T01:57:29.736Z,78.72
2023-04-01T02:00:20.015Z,78.51
2023-04-01T02:03:08.144Z,78.86
2023-04-01T02:05:58.214Z,78.78
2023-04-01T02:08:59.178Z,78.74
2023-04-01T02:12:02.317Z,79.04
2023-04-01T02:15:01.812Z,78.80
2023-04-01T02:17:50.509Z,78.97
2023-04-01T02:20:39.561Z,79.17
2023-04-01T02:23:27.672Z,78.95
2023-04-01T02:26:15.739Z,78.89
2023-04-01T02:29:05.633Z,78.94
2023-04-01T02:31:54.138Z,79.01
2023-04-01T02:34:41.407Z,79.10
2023-04-01T02:37:27.985Z,78.84
2023-04-01T02:40:16.635Z,79.12
2023-04-01T02:43:03.532Z,78.98
2023-04-01T02:45:50.308Z,79.23
2023-04-01T02:48:36.753Z,78.93
2023-04-01T02:51:23.341Z,78.79
2023-04-01T02:54:09.979Z,78.97
2023-04-01T02:56:57.515Z,79.21
2023-04-01T02:59:44.240Z,79.40
2023-04-01T03:02:30.930Z,78.98
2023-04-01T03:05:17.701Z,79.26
2023-04-01T03:08:04.736Z,79.16
2023-04-01T03:10:51.000Z,79.22
2023-04-01T03:13:38.083Z,79.67
2023-04-01T03:16:24.696Z,79.50
2023-04-01T03:19:11.609Z,79.35
2023-04-01T03:21:58.214Z,79.39
2023-04-01T03:24:44.463Z,79.48
2023-04-01T03:27:32.598Z,79.50
2023-04-01T03:30:18.951Z,79.42
2023-04-01T03:33:08.509Z,79.55
2023-04-01T03:35:55.872Z,79.50
2023-04-01T03:38:42.577Z,79.39
2023-04-01T03:41:28.992Z,79.62
2023-04-01T03:44:15.804Z,79.56
2023-04-01T03:47:02.761Z,79.11
2023-04-01T03:49:49.793Z,79.48
2023-04-01T03:52:36.114Z,79.38
2023-04-01T03:55:22.980Z,79.29
2023-04-01T03:58:10.440Z,79.44
2023-04-01T04:00:56.763Z,79.50
2023-04-01T04:03:43.086Z,79.45
2023-04-01T04:06:30.258Z,79.37
2023-04-01T04:09:16.752Z,79.25
2023-04-01T04:12:03.457Z,79.49
2023-04-01T04:14:50.195Z,79.54
2023-04-01T04:17:36.923Z,79.18
2023-04-01T04:20:23.783Z,79.24
2023-04-01T04:23:10.261Z,79.41
2023-04-01T04:26:08.840Z,79.60
2023-04-01T04:28:56.522Z,79.84
2023-04-01T04:31:44.406Z,79.64
2023-04-01T04:34:31.156Z,79.77
2023-04-01T04:37:17.763Z,79.91
2023-04-01T04:40:05.094Z,79.72
2023-04-01T04:42:51.757Z,79.92
2023-04-01T04:45:38.445Z,80.07
2023-04-01T04:48:24.958Z,80.38
2023-04-01T04:51:19.977Z,80.06
2023-04-01T04:54:07.903Z,80.06
2023-04-01T04:57:14.515Z,80.24
2023-04-01T05:00:06.417Z,80.43
2023-04-01T05:03:04.178Z,80.34
2023-04-01T05:05:53.478Z,80.31
2023-04-01T05:08:41.449Z,80.47
2023-04-01T05:11:28.356Z,80.26
2023-04-01T05:14:17.023Z,80.43
2023-04-01T05:17:13.083Z,80.38
2023-04-01T05:19:59.648Z,80.41
2023-04-01T05:22:46.629Z,80.48
2023-04-01T05:25:33.531Z,80.62
2023-04-01T05:28:21.390Z,80.70
2023-04-01T05:31:09.292Z,80.48
2023-04-01T05:33:58.751Z,80.45
2023-04-01T05:36:45.519Z,80.20
2023-04-01T05:39:32.170Z,80.31
2023-04-01T05:42:18.874Z,80.25
2023-04-01T05:45:06.810Z,80.27
2023-04-01T05:48:12.423Z,80.21
2023-04-01T05:51:00.542Z,79.88
2023-04-01T05:53:46.955Z,79.67
2023-04-01T05:56:33.884Z,79.59
2023-04-01T05:59:20.467Z,79.56
2023-04-01T06:02:06.965Z,79.39
2023-04-01T06:05:11.009Z,79.58
2023-04-01T06:08:07.193Z,79.20
2023-04-01T06:10:56.811Z,79.25
2023-04-01T06:13:51.216Z,79.00
2023-04-01T06:16:47.501Z,78.86
2023-04-01T06:20:06.568Z,78.72
2023-04-01T06:22:54.940Z,78.46
2023-04-01T06:26:12.130Z,78.16
2023-04-01T06:29:01.374Z,78.52
2023-04-01T06:32:07.640Z,78.10
2023-04-01T06:35:36.040Z,77.90
2023-04-01T06:38:48.206Z,77.99
2023-04-01T06:41:38.870Z,77.81
2023-04-01T06:44:45.361Z,77.18
2023-04-01T06:48:27.492Z,77.32
2023-04-01T06:51:57.652Z,77.35
2023-04-01T06:55:10.020Z,77.01
2023-04-01T06:58:32.578Z,77.15
2023-04-01T07:01:25.097Z,77.25
2023-04-01T07:04:24.369Z,76.89
2023-04-01T07:07:28.218Z,76.71
2023-04-01T07:10:32.276Z,77.14
2023-04-01T07:13:54.210Z,76.31
2023-04-01T07:16:46.188Z,76.54
2023-04-01T07:19:43.507Z,76.51
2023-04-01T07:22:41.894Z,76.70
2023-04-01T07:25:46.996Z,76.91
2023-04-01T07:28:54.089Z,76.57
2023-04-01T07:32:05.931Z,76.27
2023-04-01T07:35:15.644Z,76.03
2023-04-01T07:38:16.068Z,75.68
2023-04-01T07:41:12.220Z,75.62
2023-04-01T07:44:27.994Z,75.88
2023-04-01T07:47:22.855Z,75.44
2023-04-01T07:50:19.532Z,75.30
2023-04-01T07:53:39.332Z,75.74
2023-04-01T07:56:46.960Z,75.74
2023-04-01T07:59:56.150Z,75.36
2023-04-01T08:03:06.554Z,75.02
2023-04-01T08:06:16.136Z,75.41
2023-04-01T08:09:31.823Z,75.38
2023-04-01T08:13:22.347Z,75.18
2023-04-01T08:16:58.159Z,75.29
2023-04-01T08:20:18.579Z,74.73
2023-04-01T08:23:28.152Z,74.69
2023-04-01T08:26:27.417Z,74.67
2023-04-01T08:29:24.434Z,75.07
2023-04-01T08:32:17.041Z,75.00
2023-04-01T08:35:16.951Z,74.91
2023-04-01T08:38:34.262Z,74.39
2023-04-01T08:41:43.649Z,74.24
2023-04-01T08:45:37.280Z,72.37
2023-04-01T08:48:42.989Z,72.83
2023-04-01T08:52:04.005Z,72.20
2023-04-01T08:55:21.102Z,71.71
2023-04-01T08:58:20.967Z,72.06
2023-04-01T09:01:33.720Z,72.35
2023-04-01T09:04:40.242Z,71.77
2023-04-01T09:07:45.348Z,71.02
2023-04-01T09:10:41.053Z,71.29
2023-04-01T09:14:19.689Z,71.61
2023-04-01T09:17:32.808Z,71.33
2023-04-01T09:20:43.837Z,71.89
2023-04-01T09:23:49.807Z,70.96
2023-04-01T09:26:53.491Z,71.32
2023-04-01T09:29:49.330Z,70.19
2023-04-01T09:33:12.914Z,70.94
2023-04-01T09:36:22.973Z,70.14
2023-04-01T09:39:18.375Z,70.13
2023-04-01T09:42:22.489Z,69.71
2023-04-01T09:45:41.490Z,70.08
2023-04-01T09:48:56.575Z,69.53
2023-04-01T09:51:56.945Z,69.52
2023-04-01T09:55:07.767Z,69.54
2023-04-01T09:58:09.319Z,68.78
2023-04-01T10:01:28.975Z,69.12
2023-04-01T10:04:43.787Z,69.54
2023-04-01T10:07:46.115Z,69.83
2023-04-01T10:10:44.651Z,69.48
2023-04-01T10:14:00.542Z,69.94
2023-04-01T10:17:09.087Z,70.14
2023-04-01T10:20:43.055Z,69.44
2023-04-01T10:23:33.236Z,69.67
2023-04-01T10:26:38.772Z,70.00
2023-04-01T10:29:54.659Z,69.07
2023-04-01T10:33:16.548Z,69.78
2023-04-01T10:36:17.179Z,69.00
2023-04-01T10:39:43.044Z,68.41
2023-04-01T10:43:17.000Z,68.98
2023-04-01T10:46:36.375Z,68.75
2023-04-01T10:49:44.788Z,68.43
2023-04-01T10:52:47.359Z,69.51
2023-04-01T10:56:01.626Z,68.54
2023-04-01T10:59:25.574Z,68.76
2023-04-01T11:02:31.118Z,68.89
2023-04-01T11:06:23.224Z,68.32
2023-04-01T11:09:15.638Z,67.82
2023-04-01T11:12:11.241Z,68.49
2023-04-01T11:15:25.559Z,67.98
2023-04-01T11:18:20.217Z,68.61
2023-04-01T11:21:41.421Z,68.83
2023-04-01T11:24:36.255Z,68.31
2023-04-01T11:27:48.196Z,67.74
2023-04-01T11:30:56.700Z,68.50
2023-04-01T11:34:14.842Z,68.97
2023-04-01T11:37:29.414Z,69.40
2023-04-01T11:41:09.633Z,69.39
2023-04-01T11:44:22.455Z,69.53
2023-04-01T11:47:49.178Z,69.20
2023-04-01T11:50:48.155Z,69.68
2023-04-01T11:53:53.628Z,69.94
2023-04-01T11:57:00.073Z,69.65
2023-04-01T12:00:17.412Z,69.76
2023-04-01T12:03:23.180Z,69.52
2023-04-01T12:06:42.763Z,69.16
2023-04-01T12:09:51.408Z,68.65
2023-04-01T12:13:01.934Z,68.18
2023-04-01T12:16:01.584Z,68.13
2023-04-01T12:19:04.568Z,68.09
2023-04-01T12:21:50.959Z,67.37
2023-04-01T12:24:51.264Z,67.72
2023-04-01T12:27:50.130Z,67.85
2023-04-01T12:30:47.315Z,67.64
2023-04-01T12:34:02.964Z,67.29
2023-04-01T12:36:51.327Z,67.49
2023-04-01T12:40:19.103Z,67.93
2023-04-01T12:43:28.794Z,67.23
2023-04-01T12:46:33.595Z,67.09
2023-04-01T12:49:46.112Z,66.18
2023-04-01T12:53:10.581Z,65.19
2023-04-01T12:55:58.002Z,65.03
2023-04-01T12:59:23.268Z,64.76
2023-04-01T13:02:19.966Z,63.84
2023-04-01T13:05:31.526Z,62.39
2023-04-01T13:08:38.056Z,63.65
2023-04-01T13:11:37.800Z,63.87
2023-04-01T13:15:06.582Z,62.97
2023-04-01T13:18:14.315Z,64.17
2023-04-01T13:21:23.018Z,63.61
2023-04-01T13:24:45.017Z,63.86
2023-04-01T13:27:39.468Z,63.66
2023-04-01T13:30:41.373Z,63.93
2023-04-01T13:33:57.040Z,64.34
2023-04-01T13:37:20.729Z,64.74
2023-04-01T13:40:55.725Z,65.14
2023-04-01T13:44:12.983Z,65.42
2023-04-01T13:47:11.469Z,63.59
2023-04-01T13:50:19.792Z,64.16
2023-04-01T13:53:14.916Z,64.50
2023-04-01T13:56:43.931Z,64.75
2023-04-01T13:59:58.513Z,65.30
2023-04-01T14:03:30.088Z,65.49
2023-04-01T14:06:52.663Z,65.62
2023-04-01T14:10:01.703Z,65.45
2023-04-01T14:13:03.108Z,65.78
2023-04-01T14:16:18.429Z,65.85
2023-04-01T14:19:26.412Z,66.25
2023-04-01T14:22:42.504Z,66.33
2023-04-01T14:25:47.724Z,66.37
2023-04-01T14:28:57.401Z,66.14
2023-04-01T14:32:08.822Z,66.17
2023-04-01T14:35:12.384Z,66.18
2023-04-01T14:38:42.377Z,66.09
2023-04-01T14:41:47.039Z,66.33
2023-04-01T14:44:52.356Z,66.62
2023-04-01T14:48:05.632Z,66.57
2023-04-01T14:50:55.726Z,66.60
2023-04-01T14:54:11.404Z,66.77
2023-04-01T14:57:25.269Z,66.97
2023-04-01T15:00:18.047Z,66.75
2023-04-01T15:03:13.478Z,66.27
2023-04-01T15:06:15.376Z,66.37
2023-04-01T15:09:18.738Z,66.75
2023-04-01T15:13:04.073Z,66.87
2023-04-01T15:16:06.388Z,67.05
2023-04-01T15:19:04.581Z,67.02
2023-04-01T15:22:00.831Z,67.47
2023-04-01T15:25:00.202Z,67.50
2023-04-01T15:28:10.768Z,67.58
2023-04-01T15:31:04.842Z,67.77
2023-04-01T15:34:14.823Z,67.85
2023-04-01T15:37:21.784Z,67.82
2023-04-01T15:40:23.682Z,67.83
2023-04-01T15:43:23.113Z,68.04
2023-04-01T15:46:52.559Z,68.04
2023-04-01T15:49:48.377Z,68.24
2023-04-01T15:52:53.620Z,67.88
2023-04-01T15:55:49.337Z,68.08
2023-04-01T15:58:58.568Z,68.37
2023-04-01T16:01:59.086Z,68.66
2023-04-01T16:04:51.536Z,68.68
2023-04-01T16:07:37.881Z,68.92
2023-04-01T16:10:27.203Z,69.19
2023-04-01T16:13:29.225Z,69.25
2023-04-01T16:16:49.217Z,69.61
2023-04-01T16:20:01.453Z,69.56
2023-04-01T16:23:02.487Z,69.56
2023-04-01T16:26:07.034Z,69.59
2023-04-01T16:29:06.055Z,69.62
2023-04-01T16:32:17.066Z,69.75
2023-04-01T16:35:41.604Z,69.94
2023-04-01T16:38:39.286Z,69.87
2023-04-01T16:41:34.937Z,70.24
2023-04-01T16:44:26.320Z,70.51
2023-04-01T16:47:20.337Z,70.55
2023-04-01T16:50:18.812Z,70.60
2023-04-01T16:53:14.541Z,70.38
2023-04-01T16:56:02.141Z,70.26
2023-04-01T16:59:15.087Z,70.07
2023-04-01T17:02:01.268Z,70.19
2023-04-01T17:04:52.584Z,70.25
2023-04-01T17:07:41.509Z,70.37
2023-04-01T17:10:48.264Z,69.98
2023-04-01T17:13:46.533Z,69.92
2023-04-01T17:17:18.813Z,70.12
2023-04-01T17:20:30.215Z,70.27
2023-04-01T17:23:39.639Z,70.31
2023-04-01T17:26:33.333Z,70.12
2023-04-01T17:29:34.801Z,70.12
2023-04-01T17:32:33.286Z,70.24
2023-04-01T17:35:27.536Z,70.43
2023-04-01T17:38:25.083Z,70.43
2023-04-01T17:41:31.923Z,70.19
2023-04-01T17:44:48.684Z,70.34
2023-04-01T17:48:02.234Z,70.42
2023-04-01T17:51:27.033Z,70.36
2023-04-01T17:54:28.395Z,70.58
2023-04-01T17:57:34.672Z,70.72
2023-04-01T18:00:46.104Z,70.56
2023-04-01T18:04:03.902Z,70.73
2023-04-01T18:07:26.060Z,70.85
2023-04-01T18:10:32.453Z,70.94
2023-04-01T18:13:34.519Z,71.21
2023-04-01T18:16:48.325Z,71.36
2023-04-01T18:19:45.192Z,71.37
2023-04-01T18:22:44.136Z,71.59
2023-04-01T18:25:39.114Z,72.14
2023-04-01T18:28:36.149Z,72.71
2023-04-01T18:31:27.314Z,72.56
2023-04-01T18:34:30.684Z,72.94
2023-04-01T18:37:24.532Z,73.31
2023-04-01T18:40:33.668Z,73.47
2023-04-01T18:43:48.109Z,73.68
2023-04-01T18:47:11.783Z,73.94
2023-04-01T18:50:07.112Z,74.00
2023-04-01T18:53:36.148Z,74.14
2023-04-01T18:56:42.217Z,74.42
2023-04-01T18:59:35.680Z,74.41
2023-04-01T19:02:55.398Z,74.55
2023-04-01T19:05:47.507Z,74.69
2023-04-01T19:08:37.391Z,74.94
2023-04-01T19:11:41.192Z,74.75
2023-04-01T19:14:52.579Z,74.69
2023-04-01T19:17:55.142Z,74.88
2023-04-01T19:20:57.914Z,75.03
2023-04-01T19:24:11.767Z,74.99
2023-04-01T19:27:11.570Z,75.07
2023-04-01T19:30:36.562Z,75.32
2023-04-01T19:33:45.236Z,75.26
2023-04-01T19:36:52.530Z,75.13
2023-04-01T19:40:16.529Z,75.29
2023-04-01T19:43:15.223Z,75.67
2023-04-01T19:46:41.460Z,75.73
2023-04-01T19:49:56.457Z,75.73
2023-04-01T19:52:43.785Z,75.88
2023-04-01T19:56:02.798Z,76.20
2023-04-01T19:59:22.170Z,76.26
2023-04-01T20:02:08.980Z,76.27
2023-04-01T20:04:57.340Z,76.39
2023-04-01T20:07:50.950Z,76.34
2023-04-01T20:11:00.594Z,76.25
2023-04-01T20:14:10.605Z,76.41
2023-04-01T20:17:02.889Z,76.35
2023-04-01T20:20:16.033Z,76.55
2023-04-01T20:23:11.548Z,76.52
2023-04-01T20:26:03.521Z,76.54
2023-04-01T20:29:19.761Z,76.50
2023-04-01T20:32:21.295Z,76.21
2023-04-01T20:35:19.592Z,76.47
2023-04-01T20:38:24.097Z,76.49
2023-04-01T20:41:23.191Z,76.33
2023-04-01T20:44:12.978Z,76.39
2023-04-01T20:47:08.144Z,76.28
2023-04-01T20:50:06.662Z,75.90
2023-04-01T20:53:18.155Z,76.11
2023-04-01T20:56:28.856Z,76.24
2023-04-01T20:59:34.341Z,76.22
2023-04-01T21:02:49.748Z,76.08
2023-04-01T21:05:58.321Z,76.06
2023-04-01T21:09:07.867Z,75.98
2023-04-01T21:12:20.444Z,76.11
2023-04-01T21:15:36.732Z,76.16
2023-04-01T21:19:00.770Z,76.08
2023-04-01T21:22:26.353Z,75.72
2023-04-01T21:25:19.214Z,75.64
2023-04-01T21:28:13.934Z,75.74
2023-04-01T21:31:13.784Z,75.72
2023-04-01T21:34:19.234Z,75.78
2023-04-01T21:37:21.018Z,75.61
2023-04-01T21:40:29.100Z,75.69
2023-04-01T21:43:36.531Z,75.75
2023-04-01T21:46:54.971Z,75.86
2023-04-01T21:50:26.779Z,75.71
2023-04-01T21:53:35.079Z,75.60
2023-04-01T21:56:42.930Z,75.47
2023-04-01T22:00:00.228Z,75.65
2023-04-01T22:03:04.303Z,75.67
2023-04-01T22:05:58.988Z,75.56
2023-04-01T22:08:51.633Z,75.87
2023-04-01T22:11:55.361Z,75.65
2023-04-01T22:15:18.409Z,75.80
2023-04-01T22:18:15.090Z,75.86
2023-04-01T22:21:14.342Z,75.77
2023-04-01T22:24:22.645Z,75.77
2023-04-01T22:27:21.566Z,75.89
2023-04-01T22:30:24.261Z,75.98
2023-04-01T22:33:54.219Z,76.00
2023-04-01T22:36:53.596Z,76.20
2023-04-01T22:40:01.153Z,75.98
2023-04-01T22:42:52.884Z,76.10
2023-04-01T22:45:58.277Z,76.17
2023-04-01T22:49:17.649Z,76.25
2023-04-01T22:52:24.579Z,75.84
2023-04-01T22:55:23.208Z,76.13
2023-04-01T22:58:16.118Z,76.06
2023-04-01T23:01:12.120Z,76.04
2023-04-01T23:04:01.273Z,75.87
2023-04-01T23:06:55.750Z,76.19
2023-04-01T23:09:42.927Z,75.99
2023-04-01T23:12:31.062Z,76.10
2023-04-01T23:15:19.045Z,75.91
2023-04-01T23:18:34.740Z,75.78
2023-04-01T23:21:39.385Z,75.56
2023-04-01T23:24:39.641Z,75.66
2023-04-01T23:27:31.838Z,75.47
2023-04-01T23:30:40.498Z,75.06
2023-04-01T23:33:31.702Z,75.32
2023-04-01T23:36:18.169Z,75.22
2023-04-01T23:39:22.185Z,74.97
2023-04-01T23:42:16.862Z,75.16
2023-04-01T23:45:11.872Z,74.95
2023-04-01T23:47:58.866Z,74.82
2023-04-01T23:50:47.227Z,74.88
2023-04-01T23:53:35.572Z,74.88
2023-04-01T23:56:22.711Z,74.77
2023-04-01T23:59:19.464Z,74.91
